Time;durP1;ratioP1;P1;durP2;ratioP2;P2;SDS_P1;SDS_P2;PMS_P1;PMS_P2;Temp;Humidity;BMP_temperature;BMP_pressure;BME280_temperature;BME280_humidity;BME280_pressure;Samples;Min_cycle;Max_cycle;Signal;HPM_P1;HPM_P2
2022/02/26 00:01:09;;;;;;;6.25;1.73;;;21.00;99.90;;;;;;5032381;28;20033;-64
2022/02/26 00:03:36;;;;;;;5.80;0.90;;;21.00;99.90;;;;;;5027653;28;20749;-64
2022/02/26 00:06:03;;;;;;;8.35;1.90;;;21.00;99.90;;;;;;4999023;28;20485;-64
2022/02/26 00:08:31;;;;;;;7.68;1.60;;;20.80;99.90;;;;;;5032693;28;20025;-64
2022/02/26 00:10:58;;;;;;;4.75;0.93;;;20.80;99.90;;;;;;5021343;28;20021;-64
2022/02/26 00:13:26;;;;;;;7.65;1.35;;;20.80;99.90;;;;;;5032741;28;20394;-64
2022/02/26 00:15:53;;;;;;;9.10;1.05;;;20.80;99.90;;;;;;5028744;28;20456;-64
2022/02/26 00:18:21;;;;;;;7.70;1.05;;;20.80;99.90;;;;;;5031522;28;20024;-64
2022/02/26 00:20:49;;;;;;;5.90;1.58;;;20.70;99.90;;;;;;5029752;28;20417;-64
2022/02/26 00:23:16;;;;;;;9.48;1.30;;;20.70;99.90;;;;;;5027235;28;20076;-64
2022/02/26 00:25:43;;;;;;;14.35;2.33;;;20.70;99.90;;;;;;5029538;28;20489;-64
2022/02/26 00:28:11;;;;;;;11.00;1.75;;;20.70;99.90;;;;;;5019545;28;20049;-64
2022/02/26 00:30:38;;;;;;;13.77;2.03;;;20.70;99.90;;;;;;5005151;28;20532;-64
2022/02/26 00:33:05;;;;;;;7.82;1.50;;;20.70;99.90;;;;;;5013640;28;20022;-64
2022/02/26 00:35:33;;;;;;;18.02;2.72;;;20.60;99.90;;;;;;5031903;28;20490;-63
2022/02/26 00:38:00;;;;;;;10.32;1.25;;;20.70;99.90;;;;;;5032316;28;20163;-64
2022/02/26 00:40:28;;;;;;;9.15;2.00;;;20.70;99.90;;;;;;5031556;28;20588;-64
2022/02/26 00:42:55;;;;;;;10.35;2.13;;;20.70;99.90;;;;;;5014796;28;20398;-64
2022/02/26 00:45:22;;;;;;;6.22;1.60;;;20.80;99.90;;;;;;5024047;28;20486;-64
2022/02/26 00:47:50;;;;;;;9.43;1.33;;;20.70;99.90;;;;;;5028337;28;20513;-64
2022/02/26 00:50:18;;;;;;;11.48;1.90;;;20.80;99.90;;;;;;5026736;28;20037;-64
2022/02/26 00:52:45;;;;;;;8.70;1.40;;;20.80;99.90;;;;;;5028556;28;20028;-64
2022/02/26 00:55:12;;;;;;;12.57;1.63;;;20.70;99.90;;;;;;5030244;28;20127;-64
2022/02/26 00:57:40;;;;;;;8.93;1.48;;;20.70;99.90;;;;;;5030459;28;20067;-64
2022/02/26 01:00:10;;;;;;;11.35;1.58;;;20.80;99.90;;;;;;5026526;28;20036;-65
2022/02/26 01:02:37;;;;;;;8.70;1.38;;;20.70;99.90;;;;;;5031465;28;20036;-65
2022/02/26 01:05:05;;;;;;;3.25;0.63;;;20.80;99.90;;;;;;5022097;28;20091;-66
2022/02/26 01:07:32;;;;;;;6.00;1.05;;;20.80;99.90;;;;;;5033461;28;20034;-66
2022/02/26 01:09:59;;;;;;;6.07;1.08;;;20.80;99.90;;;;;;5033968;28;20056;-66
2022/02/26 01:12:27;;;;;;;10.02;1.40;;;20.80;99.90;;;;;;5035126;28;20022;-66
2022/02/26 01:14:54;;;;;;;10.52;1.35;;;20.80;99.90;;;;;;5028830;28;20053;-66
2022/02/26 01:17:22;;;;;;;7.38;1.60;;;20.80;99.90;;;;;;5027103;28;20028;-66
2022/02/26 01:19:50;;;;;;;8.75;2.22;;;20.90;99.90;;;;;;5035156;28;20065;-66
2022/02/26 01:22:18;;;;;;;11.35;2.13;;;20.90;99.90;;;;;;5036545;28;20078;-65
2022/02/26 01:24:45;;;;;;;12.75;1.88;;;20.90;99.90;;;;;;5035555;28;20029;-66
2022/02/26 01:27:12;;;;;;;8.23;1.48;;;20.90;99.90;;;;;;5019273;28;20397;-66
2022/02/26 01:29:40;;;;;;;9.05;1.90;;;20.80;99.90;;;;;;5035156;28;20021;-66
2022/02/26 01:32:07;;;;;;;8.40;1.50;;;20.90;99.90;;;;;;5036517;28;20025;-66
2022/02/26 01:34:35;;;;;;;10.18;2.67;;;20.80;99.90;;;;;;5035638;28;20024;-66
2022/02/26 01:37:03;;;;;;;10.40;1.77;;;20.90;99.90;;;;;;5037350;28;20033;-66
2022/02/26 01:39:30;;;;;;;8.60;1.70;;;21.00;99.90;;;;;;5050017;23;20045;-66
2022/02/26 01:41:58;;;;;;;10.15;1.90;;;21.00;99.90;;;;;;5054983;28;20404;-65
2022/02/26 01:44:25;;;;;;;12.73;2.10;;;21.00;99.90;;;;;;5060301;28;20032;-66
2022/02/26 01:46:53;;;;;;;12.50;2.30;;;21.00;99.90;;;;;;5060616;28;20029;-66
2022/02/26 01:49:20;;;;;;;15.00;2.63;;;21.10;99.90;;;;;;5060184;28;20090;-66
2022/02/26 01:51:49;;;;;;;6.90;1.73;;;21.20;99.90;;;;;;5060399;28;20025;-66
2022/02/26 01:54:18;;;;;;;12.65;2.28;;;21.20;99.90;;;;;;5060907;28;20017;-66
2022/02/26 01:56:46;;;;;;;7.82;1.48;;;21.20;99.90;;;;;;5041586;28;20025;-66
2022/02/26 01:59:13;;;;;;;11.57;2.00;;;21.20;99.90;;;;;;5041593;28;20041;-66
2022/02/26 02:01:40;;;;;;;12.10;1.65;;;21.20;99.90;;;;;;5062285;28;20435;-66
2022/02/26 02:04:08;;;;;;;7.38;1.83;;;21.30;99.90;;;;;;5062553;28;20029;-66
2022/02/26 02:06:35;;;;;;;11.15;2.00;;;21.30;99.90;;;;;;5062359;28;20084;-66
2022/02/26 02:09:02;;;;;;;10.18;1.85;;;21.20;99.90;;;;;;5061070;28;20102;-63
2022/02/26 02:11:30;;;;;;;10.27;1.60;;;21.30;99.90;;;;;;5064037;28;20021;-63
2022/02/26 02:13:58;;;;;;;6.65;1.25;;;21.20;99.90;;;;;;5069033;28;20080;-63
2022/02/26 02:16:25;;;;;;;7.88;1.98;;;21.20;99.90;;;;;;5065073;28;20048;-63
2022/02/26 02:18:53;;;;;;;4.65;1.38;;;21.10;99.90;;;;;;5064955;28;20151;-63
2022/02/26 02:21:21;;;;;;;8.07;1.80;;;21.10;99.90;;;;;;5065429;28;20033;-64
2022/02/26 02:23:49;;;;;;;7.07;2.58;;;21.10;99.90;;;;;;5064706;28;20081;-64
2022/02/26 02:26:18;;;;;;;12.57;2.35;;;21.10;99.90;;;;;;5060252;28;20044;-64
2022/02/26 02:28:45;;;;;;;13.77;3.25;;;21.00;99.90;;;;;;5061648;28;20451;-64
2022/02/26 02:31:12;;;;;;;8.32;2.63;;;21.00;99.90;;;;;;5061326;28;20024;-65
2022/02/26 02:33:42;;;;;;;12.05;2.42;;;20.90;99.90;;;;;;5060753;28;20029;-65
2022/02/26 02:36:09;;;;;;;10.70;2.72;;;20.90;99.90;;;;;;5058141;28;20461;-64
2022/02/26 02:38:37;;;;;;;11.75;2.53;;;20.80;99.90;;;;;;5060430;28;20017;-65
2022/02/26 02:41:04;;;;;;;9.25;2.25;;;20.80;99.90;;;;;;5059611;28;20100;-64
2022/02/26 02:43:32;;;;;;;11.50;2.88;;;20.90;99.90;;;;;;5061354;28;20029;-65
2022/02/26 02:46:00;;;;;;;11.90;2.92;;;21.00;99.90;;;;;;5061422;28;20062;-65
2022/02/26 02:48:27;;;;;;;9.32;2.95;;;21.00;99.90;;;;;;5063926;28;20028;-65
2022/02/26 02:50:55;;;;;;;9.50;2.45;;;21.00;99.90;;;;;;5060651;28;20029;-65
2022/02/26 02:53:22;;;;;;;10.65;3.80;;;21.00;99.90;;;;;;5060425;28;20033;-65
2022/02/26 02:55:52;;;;;;;11.02;3.60;;;21.00;99.90;;;;;;5061050;28;20436;-65
2022/02/26 02:58:27;;;;;;;12.05;3.17;;;21.00;99.90;;;;;;5042332;28;20068;-65
2022/02/26 03:00:55;;;;;;;14.95;3.83;;;21.00;99.90;;;;;;5053183;28;20063;-65
2022/02/26 03:06:45;;;;;;;12.45;2.80;;;21.00;99.90;;;;;;5057451;28;20051;-64
2022/02/26 03:09:13;;;;;;;9.95;3.10;;;21.00;99.90;;;;;;5058890;28;20036;-64
2022/02/26 03:11:40;;;;;;;13.10;3.35;;;21.10;99.90;;;;;;5059508;28;20043;-64
2022/02/26 03:14:07;;;;;;;14.85;3.17;;;21.10;99.90;;;;;;5060957;28;20052;-65
2022/02/26 03:16:35;;;;;;;9.10;1.95;;;21.10;99.90;;;;;;5059739;28;20017;-64
2022/02/26 03:19:03;;;;;;;12.23;2.33;;;21.10;99.90;;;;;;5062859;28;20174;-65
2022/02/26 03:21:30;;;;;;;9.40;2.22;;;21.20;99.90;;;;;;5061452;28;20032;-65
2022/02/26 03:23:58;;;;;;;9.68;1.90;;;21.20;99.90;;;;;;5060295;28;20162;-65
2022/02/26 03:26:25;;;;;;;7.80;1.80;;;21.30;99.90;;;;;;5059753;28;20045;-65
2022/02/26 03:28:52;;;;;;;8.07;1.25;;;21.30;99.90;;;;;;5062190;28;20025;-65
2022/02/26 03:31:20;;;;;;;12.13;1.60;;;21.30;99.90;;;;;;5059567;28;20442;-64
2022/02/26 03:33:47;;;;;;;7.60;1.60;;;21.00;99.90;;;;;;5063436;28;20025;-64
2022/02/26 03:36:15;;;;;;;12.25;1.75;;;20.90;99.90;;;;;;5049518;28;20484;-64
2022/02/26 03:38:42;;;;;;;6.75;2.00;;;20.80;99.90;;;;;;5070278;28;20040;-64
2022/02/26 03:41:14;;;;;;;7.20;1.55;;;20.90;99.90;;;;;;5066258;28;20039;-64
2022/02/26 03:43:43;;;;;;;7.13;1.08;;;20.90;99.90;;;;;;5064833;28;20084;-64
2022/02/26 03:46:10;;;;;;;5.78;0.90;;;20.70;99.90;;;;;;5064591;28;20119;-64
2022/02/26 03:48:38;;;;;;;4.18;0.85;;;20.50;99.90;;;;;;5065514;28;20112;-64
2022/02/26 03:51:05;;;;;;;5.72;0.77;;;20.50;99.90;;;;;;5062975;28;20029;-65
2022/02/26 03:53:33;;;;;;;8.80;1.23;;;20.60;99.90;;;;;;5065749;28;20025;-64
2022/02/26 03:56:01;;;;;;;5.97;1.10;;;20.60;99.90;;;;;;5065117;28;20093;-64
2022/02/26 03:58:28;;;;;;;8.48;1.55;;;20.70;99.90;;;;;;5063945;28;20057;-65
2022/02/26 04:00:56;;;;;;;8.40;1.35;;;20.80;99.90;;;;;;5060447;28;20028;-64
2022/02/26 04:03:23;;;;;;;9.63;1.13;;;20.80;99.90;;;;;;5060443;28;20037;-64
2022/02/26 04:05:51;;;;;;;8.95;1.00;;;20.80;99.90;;;;;;5056159;28;20029;-64
2022/02/26 04:08:18;;;;;;;8.40;0.90;;;20.80;99.90;;;;;;5059817;28;20036;-64
2022/02/26 04:10:45;;;;;;;5.03;0.80;;;20.80;99.90;;;;;;5061495;28;20025;-64
2022/02/26 04:13:13;;;;;;;5.82;1.05;;;20.80;99.90;;;;;;5060657;28;20024;-64
2022/02/26 04:15:41;;;;;;;9.73;1.58;;;20.80;99.90;;;;;;5044395;28;20025;-64
2022/02/26 04:18:08;;;;;;;9.73;1.55;;;20.90;99.90;;;;;;5060381;28;20033;-65
2022/02/26 04:20:36;;;;;;;6.35;0.68;;;20.80;99.90;;;;;;5056965;28;20028;-65
2022/02/26 04:23:04;;;;;;;7.55;1.30;;;20.80;99.90;;;;;;5056692;28;20127;-65
2022/02/26 04:25:31;;;;;;;9.35;1.00;;;20.60;99.90;;;;;;5056897;28;20081;-65
2022/02/26 04:27:59;;;;;;;6.38;1.70;;;20.70;99.90;;;;;;5058970;28;20040;-65
2022/02/26 04:30:26;;;;;;;8.85;1.60;;;20.80;99.90;;;;;;5060341;28;20459;-65
2022/02/26 04:32:54;;;;;;;8.20;0.98;;;20.80;99.90;;;;;;5059339;28;20100;-65
2022/02/26 04:35:21;;;;;;;7.80;1.52;;;20.70;99.90;;;;;;5043836;28;20029;-65
2022/02/26 04:37:49;;;;;;;7.18;1.10;;;20.70;99.90;;;;;;5060556;28;20140;-65
2022/02/26 04:40:16;;;;;;;9.07;0.60;;;20.60;99.90;;;;;;5059512;28;20044;-65
2022/02/26 04:42:44;;;;;;;7.60;1.27;;;20.60;99.90;;;;;;5049079;28;20037;-65
2022/02/26 04:45:13;;;;;;;8.35;1.00;;;20.60;99.90;;;;;;5033057;28;20123;-64
2022/02/26 04:47:42;;;;;;;11.90;1.58;;;20.70;99.90;;;;;;5044467;28;20064;-64
2022/02/26 04:50:12;;;;;;;9.07;1.98;;;20.70;99.90;;;;;;5049316;28;20060;-64
2022/02/26 04:52:41;;;;;;;9.63;1.50;;;20.70;99.90;;;;;;5044231;28;20055;-64
2022/02/26 04:55:09;;;;;;;9.07;1.38;;;20.90;99.90;;;;;;5044791;28;20021;-65
2022/02/26 04:57:37;;;;;;;8.52;1.60;;;20.90;99.90;;;;;;5050198;28;20112;-64
2022/02/26 05:00:10;;;;;;;11.02;4.32;;;20.90;99.90;;;;;;5048640;28;20029;-64
2022/02/26 05:02:38;;;;;;;19.65;10.70;;;20.90;99.90;;;;;;5044571;28;20087;-63
2022/02/26 05:05:06;;;;;;;7.43;2.50;;;20.80;99.90;;;;;;5046290;28;20072;-64
2022/02/26 05:07:34;;;;;;;9.00;1.38;;;20.70;99.90;;;;;;5043209;28;20508;-64
2022/02/26 05:10:01;;;;;;;6.90;2.38;;;20.60;99.90;;;;;;5038842;28;20480;-64
2022/02/26 05:12:29;;;;;;;9.07;2.15;;;20.70;99.90;;;;;;5044114;28;20474;-64
2022/02/26 05:14:56;;;;;;;6.68;3.03;;;20.70;99.90;;;;;;5050372;28;20485;-64
2022/02/26 05:17:24;;;;;;;12.45;2.03;;;20.80;99.90;;;;;;5047215;28;20026;-64
2022/02/26 05:19:51;;;;;;;4.20;0.90;;;20.90;99.90;;;;;;5054864;28;20029;-64
2022/02/26 05:22:18;;;;;;;13.43;2.70;;;20.90;99.90;;;;;;5050373;28;20024;-64
2022/02/26 05:24:46;;;;;;;10.50;2.40;;;20.90;99.90;;;;;;5047604;28;20051;-64
2022/02/26 05:27:13;;;;;;;8.98;0.85;;;20.90;99.90;;;;;;5041441;28;20030;-64
2022/02/26 05:29:41;;;;;;;13.77;8.23;;;21.00;99.90;;;;;;5046083;28;20538;-64
2022/02/26 05:32:09;;;;;;;6.60;1.60;;;21.00;99.90;;;;;;5052622;28;20145;-64
2022/02/26 05:34:36;;;;;;;8.07;1.52;;;21.10;99.90;;;;;;5041843;28;20029;-64
2022/02/26 05:37:04;;;;;;;7.85;1.05;;;21.10;99.90;;;;;;5049413;28;20024;-64
2022/02/26 05:39:32;;;;;;;5.32;1.08;;;21.00;99.90;;;;;;5053417;28;20037;-65
2022/02/26 05:41:59;;;;;;;6.95;0.85;;;21.00;99.90;;;;;;5051648;28;20385;-64
2022/02/26 05:44:27;;;;;;;6.57;1.10;;;21.10;99.90;;;;;;5043986;28;20040;-64
2022/02/26 05:46:55;;;;;;;7.13;1.33;;;21.10;99.90;;;;;;5054059;28;20033;-63
2022/02/26 05:49:24;;;;;;;5.47;0.68;;;21.00;99.90;;;;;;5051638;28;20039;-64
2022/02/26 05:51:51;;;;;;;6.95;1.52;;;21.00;99.90;;;;;;5054242;28;20029;-64
2022/02/26 05:54:19;;;;;;;9.50;1.30;;;20.90;99.90;;;;;;5052562;28;20097;-64
2022/02/26 05:56:46;;;;;;;7.32;1.33;;;21.00;99.90;;;;;;5035667;28;20060;-64
2022/02/26 05:59:14;;;;;;;8.38;0.90;;;21.00;99.90;;;;;;5054869;28;20017;-65
2022/02/26 06:01:42;;;;;;;5.97;1.42;;;21.10;99.90;;;;;;5036064;28;20028;-64
2022/02/26 06:04:09;;;;;;;7.57;1.23;;;21.10;99.90;;;;;;5041804;28;20163;-64
2022/02/26 06:06:36;;;;;;;7.05;1.60;;;21.10;99.90;;;;;;5028570;28;20025;-64
2022/02/26 06:09:04;;;;;;;6.85;1.25;;;21.20;99.90;;;;;;5034330;28;20033;-64
2022/02/26 06:11:31;;;;;;;6.93;1.67;;;21.20;99.90;;;;;;5052332;28;20025;-64
2022/02/26 06:13:59;;;;;;;6.18;1.45;;;21.20;99.90;;;;;;5048568;28;20068;-64
2022/02/26 06:16:26;;;;;;;11.57;1.73;;;21.30;99.90;;;;;;5041539;28;20363;-64
2022/02/26 06:18:54;;;;;;;7.70;1.65;;;21.30;99.90;;;;;;5041037;28;20029;-64
2022/02/26 06:21:21;;;;;;;4.57;1.17;;;21.30;99.90;;;;;;5051427;28;20095;-64
2022/02/26 06:23:48;;;;;;;13.25;2.17;;;21.20;99.90;;;;;;5053642;28;20104;-65
2022/02/26 06:26:16;;;;;;;7.07;1.23;;;21.20;99.90;;;;;;5053081;28;20036;-65
2022/02/26 06:28:43;;;;;;;7.38;1.77;;;21.20;99.90;;;;;;5053592;28;20485;-65
2022/02/26 06:31:11;;;;;;;7.97;1.38;;;21.20;99.90;;;;;;5048745;28;20036;-63
2022/02/26 06:33:38;;;;;;;4.63;1.00;;;21.20;99.90;;;;;;5053960;28;20067;-65
2022/02/26 06:36:06;;;;;;;6.97;1.58;;;21.20;99.90;;;;;;5054258;28;20087;-65
2022/02/26 06:38:33;;;;;;;8.13;1.05;;;21.20;99.90;;;;;;5041246;28;20029;-65
2022/02/26 06:41:01;;;;;;;7.22;1.88;;;21.20;99.90;;;;;;5032627;28;20079;-64
2022/02/26 06:43:28;;;;;;;7.05;1.58;;;21.20;99.90;;;;;;5050966;28;20032;-64
2022/02/26 06:45:56;;;;;;;6.18;1.10;;;21.20;99.90;;;;;;5048298;28;20057;-66
2022/02/26 06:48:23;;;;;;;5.57;0.73;;;21.10;99.90;;;;;;5047473;28;20032;-66
2022/02/26 06:50:50;;;;;;;6.35;0.82;;;21.20;99.90;;;;;;5052705;28;20036;-67
2022/02/26 06:53:18;;;;;;;8.35;0.75;;;21.20;99.90;;;;;;5053915;28;20033;-67
2022/02/26 06:55:45;;;;;;;10.30;1.27;;;21.30;99.90;;;;;;5052018;28;20039;-67
2022/02/26 06:58:13;;;;;;;6.03;0.82;;;21.20;99.90;;;;;;5054597;28;20048;-67
2022/02/26 07:00:40;;;;;;;4.45;1.65;;;21.20;99.90;;;;;;5053763;28;20091;-66
2022/02/26 07:03:08;;;;;;;10.10;1.15;;;21.10;99.90;;;;;;5054389;28;20024;-66
2022/02/26 07:05:35;;;;;;;9.70;1.25;;;21.10;99.90;;;;;;5051849;28;20570;-66
2022/02/26 07:08:02;;;;;;;7.40;1.13;;;21.20;99.90;;;;;;5053413;28;20095;-66
2022/02/26 07:10:30;;;;;;;6.93;1.25;;;21.10;99.90;;;;;;5052451;28;20029;-66
2022/02/26 07:12:57;;;;;;;5.63;1.25;;;21.20;99.90;;;;;;5053627;28;20033;-66
2022/02/26 07:15:25;;;;;;;3.22;0.77;;;21.20;99.90;;;;;;5052592;28;20017;-66
2022/02/26 07:17:52;;;;;;;6.85;1.70;;;21.20;99.90;;;;;;5042625;28;20448;-66
2022/02/26 07:20:20;;;;;;;6.85;1.30;;;21.20;99.90;;;;;;5031258;28;20492;-66
2022/02/26 07:22:47;;;;;;;8.43;1.80;;;21.20;99.90;;;;;;5035937;28;20484;-66
2022/02/26 07:25:15;;;;;;;9.52;2.67;;;21.20;99.90;;;;;;5050260;28;20472;-66
2022/02/26 07:27:42;;;;;;;19.33;11.32;;;21.20;99.90;;;;;;5045321;28;20104;-66
2022/02/26 07:30:10;;;;;;;22.30;8.07;;;21.10;99.90;;;;;;5053257;28;20028;-67
2022/02/26 07:32:37;;;;;;;12.10;5.55;;;21.20;99.90;;;;;;5047594;28;20064;-66
2022/02/26 07:35:05;;;;;;;7.22;1.67;;;21.20;99.90;;;;;;5051550;28;20043;-67
2022/02/26 07:37:33;;;;;;;6.55;0.90;;;21.20;99.90;;;;;;5049039;28;20033;-67
2022/02/26 07:40:00;;;;;;;5.18;0.80;;;21.20;99.90;;;;;;5050366;28;20045;-67
2022/02/26 07:42:28;;;;;;;6.18;0.85;;;21.20;99.90;;;;;;5042198;22;20506;-66
2022/02/26 07:44:55;;;;;;;6.20;0.90;;;21.20;99.90;;;;;;5035436;28;20033;-67
2022/02/26 07:47:22;;;;;;;5.15;1.05;;;21.20;99.90;;;;;;5025975;28;20508;-67
2022/02/26 07:49:50;;;;;;;3.58;0.80;;;21.20;99.90;;;;;;5032757;28;20064;-68
2022/02/26 07:52:17;;;;;;;5.35;1.80;;;21.20;99.90;;;;;;5029600;28;20145;-67
2022/02/26 07:54:44;;;;;;;5.93;1.27;;;21.10;99.90;;;;;;5033124;28;20017;-67
2022/02/26 07:57:12;;;;;;;10.25;1.00;;;21.10;99.90;;;;;;5025362;28;20022;-67
2022/02/26 07:59:39;;;;;;;5.28;0.85;;;21.10;99.90;;;;;;5028337;28;20099;-67
2022/02/26 08:02:07;;;;;;;6.88;1.00;;;21.00;99.90;;;;;;5031576;28;20021;-67
2022/02/26 08:04:35;;;;;;;5.60;0.90;;;21.10;99.90;;;;;;5032147;28;20022;-67
2022/02/26 08:07:04;;;;;;;7.32;1.08;;;21.10;99.90;;;;;;5014022;28;20046;-67
2022/02/26 08:09:33;;;;;;;2.42;0.47;;;21.10;99.90;;;;;;5032279;28;20075;-67
2022/02/26 08:12:00;;;;;;;4.13;1.00;;;21.10;99.90;;;;;;5031377;28;20025;-67
2022/02/26 08:14:27;;;;;;;5.10;1.40;;;21.20;99.90;;;;;;5026594;28;20064;-67
2022/02/26 08:16:55;;;;;;;4.05;0.70;;;21.10;99.90;;;;;;5029755;28;20049;-67
2022/02/26 08:19:22;;;;;;;4.40;1.00;;;21.20;99.90;;;;;;5013189;28;20449;-67
2022/02/26 08:21:50;;;;;;;7.78;0.93;;;21.20;99.90;;;;;;5029281;28;20482;-67
2022/02/26 08:24:17;;;;;;;6.20;1.20;;;21.10;99.90;;;;;;5027810;28;20030;-67
2022/02/26 08:26:45;;;;;;;6.70;0.80;;;21.10;99.90;;;;;;5030798;28;20030;-67
2022/02/26 08:29:13;;;;;;;5.18;1.00;;;21.10;99.90;;;;;;5026723;28;20041;-66
2022/02/26 08:31:40;;;;;;;8.38;1.95;;;21.10;99.90;;;;;;5028891;28;20049;-66
2022/02/26 08:34:08;;;;;;;5.28;1.00;;;21.10;99.90;;;;;;5030162;28;20112;-66
2022/02/26 08:36:35;;;;;;;7.03;1.38;;;21.10;99.90;;;;;;5028202;28;20478;-67
2022/02/26 08:39:04;;;;;;;14.25;1.88;;;21.10;99.90;;;;;;5028810;28;20044;-67
2022/02/26 08:41:31;;;;;;;7.60;1.52;;;21.10;99.90;;;;;;5030974;28;20051;-66
2022/02/26 08:43:58;;;;;;;9.10;1.58;;;21.10;99.90;;;;;;5030697;28;20033;-67
2022/02/26 08:46:26;;;;;;;8.43;1.27;;;21.10;99.90;;;;;;5026016;28;20432;-67
2022/02/26 08:48:54;;;;;;;9.75;1.50;;;21.00;99.90;;;;;;5028676;28;20512;-67
2022/02/26 08:51:21;;;;;;;6.07;2.00;;;21.10;99.90;;;;;;5030470;28;20025;-66
2022/02/26 08:53:49;;;;;;;8.50;1.67;;;21.00;99.90;;;;;;5031786;28;20512;-67
2022/02/26 08:56:16;;;;;;;6.68;1.98;;;21.00;99.90;;;;;;5031929;28;20028;-67
2022/02/26 08:58:44;;;;;;;5.55;1.95;;;20.90;99.90;;;;;;5030923;28;20022;-67
2022/02/26 09:01:11;;;;;;;6.07;1.50;;;20.90;99.90;;;;;;5031880;28;20017;-67
2022/02/26 09:03:39;;;;;;;7.50;2.22;;;20.90;99.90;;;;;;5032079;28;20473;-67
2022/02/26 09:06:06;;;;;;;8.30;2.80;;;20.90;99.90;;;;;;5027180;28;20053;-67
2022/02/26 09:08:35;;;;;;;6.45;2.30;;;20.90;99.90;;;;;;5031210;28;20025;-67
2022/02/26 09:11:02;;;;;;;8.77;2.20;;;20.90;99.90;;;;;;5032163;28;20043;-67
2022/02/26 09:13:30;;;;;;;6.50;1.20;;;20.80;99.90;;;;;;5026059;28;20163;-67
2022/02/26 09:15:58;;;;;;;4.97;1.38;;;20.60;99.90;;;;;;5031209;28;20037;-67
2022/02/26 09:18:25;;;;;;;5.15;1.45;;;20.50;99.90;;;;;;5030639;28;20022;-67
2022/02/26 09:20:52;;;;;;;4.70;1.30;;;20.50;99.90;;;;;;5031041;28;20497;-67
2022/02/26 09:23:20;;;;;;;6.95;2.17;;;20.30;99.90;;;;;;5031176;28;20071;-67
2022/02/26 09:25:47;;;;;;;4.05;1.00;;;20.40;99.90;;;;;;5027730;28;20070;-67
2022/02/26 09:28:14;;;;;;;8.48;1.20;;;20.30;99.90;;;;;;5030693;28;20068;-67
2022/02/26 09:30:42;;;;;;;6.03;1.83;;;20.30;99.90;;;;;;5029276;28;20018;-67
2022/02/26 09:33:09;;;;;;;8.85;1.08;;;20.30;99.90;;;;;;5028227;28;20045;-67
2022/02/26 09:35:37;;;;;;;7.05;1.52;;;20.20;99.90;;;;;;5031162;28;20021;-67
2022/02/26 09:38:04;;;;;;;6.55;1.60;;;20.20;99.90;;;;;;5031417;28;20033;-67
2022/02/26 09:40:32;;;;;;;7.95;2.08;;;20.20;99.90;;;;;;5030483;28;20029;-67
2022/02/26 09:43:02;;;;;;;5.90;1.67;;;20.20;99.90;;;;;;5030946;28;20032;-67
2022/02/26 09:45:29;;;;;;;11.32;2.10;;;20.10;99.90;;;;;;5031330;28;20013;-67
2022/02/26 09:47:57;;;;;;;10.88;1.60;;;20.10;99.90;;;;;;5031403;28;20029;-67
2022/02/26 09:50:24;;;;;;;9.95;1.88;;;20.10;99.90;;;;;;5027991;28;20033;-67
2022/02/26 09:52:52;;;;;;;9.02;2.22;;;20.00;99.90;;;;;;5020207;28;20076;-67
2022/02/26 09:55:19;;;;;;;8.20;1.65;;;20.00;99.90;;;;;;5029489;28;20029;-67
2022/02/26 09:57:47;;;;;;;8.70;1.70;;;19.90;99.90;;;;;;5031042;28;20028;-67
2022/02/26 10:00:15;;;;;;;5.43;1.80;;;19.90;99.90;;;;;;5029831;28;20033;-67
2022/02/26 10:02:49;;;;;;;7.18;1.65;;;19.90;99.90;;;;;;5030317;28;20502;-67
2022/02/26 10:05:20;;;;;;;5.97;2.10;;;19.90;99.90;;;;;;5033852;28;20068;-67
2022/02/26 10:07:49;;;;;;;7.82;3.22;;;19.80;99.90;;;;;;5035041;28;20035;-67
2022/02/26 10:10:22;;;;;;;10.98;2.75;;;19.90;99.90;;;;;;5024017;28;20026;-67
2022/02/26 10:12:55;;;;;;;9.27;1.95;;;19.90;99.90;;;;;;5031262;28;20021;-67
2022/02/26 10:15:38;;;;;;;6.68;1.95;;;19.90;99.90;;;;;;5034575;28;20045;-67
2022/02/26 10:18:13;;;;;;;10.55;2.15;;;19.80;99.90;;;;;;5023805;28;20386;-67
2022/02/26 10:20:54;;;;;;;8.50;2.33;;;19.80;99.90;;;;;;5035002;28;20071;-67
2022/02/26 10:23:25;;;;;;;4.10;1.27;;;19.80;99.90;;;;;;5019767;28;20108;-69
2022/02/26 10:26:05;;;;;;;6.97;1.80;;;19.80;99.90;;;;;;5030087;28;20474;-67
2022/02/26 10:28:33;;;;;;;8.20;1.30;;;19.80;99.90;;;;;;5029726;28;20119;-67
2022/02/26 10:31:06;;;;;;;7.78;1.50;;;19.80;99.90;;;;;;5027991;28;20021;-66
2022/02/26 10:33:34;;;;;;;10.32;1.63;;;19.80;99.90;;;;;;5034698;28;20032;-67
2022/02/26 10:36:08;;;;;;;6.22;1.23;;;19.80;99.90;;;;;;5035040;28;20075;-67
2022/02/26 10:38:37;;;;;;;6.40;1.42;;;19.80;99.90;;;;;;5024178;28;20386;-67
2022/02/26 10:41:07;;;;;;;11.93;1.98;;;19.80;99.90;;;;;;5029622;28;20055;-67
2022/02/26 10:43:43;;;;;;;5.60;1.10;;;19.90;99.90;;;;;;5025800;28;20018;-67
2022/02/26 10:46:22;;;;;;;7.78;1.58;;;19.80;99.90;;;;;;5029794;28;20084;-67
2022/02/26 10:49:14;;;;;;;9.68;1.80;;;19.80;99.90;;;;;;5030688;28;20083;-67
2022/02/26 10:51:44;;;;;;;6.70;1.67;;;19.80;99.90;;;;;;5028113;28;20034;-67
2022/02/26 10:54:20;;;;;;;4.88;1.60;;;19.90;99.90;;;;;;5028091;28;20029;-67
2022/02/26 10:56:47;;;;;;;10.40;1.90;;;19.90;99.90;;;;;;5033216;28;20029;-67
2022/02/26 10:59:35;;;;;;;8.65;1.50;;;19.80;99.90;;;;;;5031454;28;20032;-67
2022/02/26 11:02:22;;;;;;;4.93;1.60;;;19.90;99.90;;;;;;5027748;28;20062;-67
2022/02/26 11:04:50;;;;;;;10.82;1.83;;;19.80;99.90;;;;;;5024881;28;20411;-66
2022/02/26 11:07:18;;;;;;;7.55;2.08;;;19.70;99.90;;;;;;5032019;28;20025;-66
2022/02/26 11:09:47;;;;;;;4.72;1.15;;;19.70;99.90;;;;;;5029924;28;20058;-66
2022/02/26 11:12:17;;;;;;;13.15;2.15;;;19.60;99.90;;;;;;5033457;28;20021;-66
2022/02/26 11:14:48;;;;;;;8.80;1.85;;;19.60;99.90;;;;;;5029725;28;20029;-66
2022/02/26 11:17:17;;;;;;;8.02;1.55;;;19.70;99.90;;;;;;5032526;28;20083;-66
2022/02/26 11:19:48;;;;;;;4.30;1.00;;;19.60;99.90;;;;;;5031307;28;20025;-66
2022/02/26 11:22:17;;;;;;;4.32;1.48;;;19.60;99.90;;;;;;5010228;28;20029;-66
2022/02/26 11:24:44;;;;;;;11.80;1.55;;;19.60;99.90;;;;;;5030901;28;20022;-66
2022/02/26 11:27:12;;;;;;;6.90;1.23;;;19.60;99.90;;;;;;5032110;28;20029;-66
2022/02/26 11:29:41;;;;;;;7.28;1.98;;;19.70;99.90;;;;;;5011951;28;20448;-66
2022/02/26 11:32:15;;;;;;;7.28;1.92;;;19.70;99.90;;;;;;5023698;28;20092;-66
2022/02/26 11:34:43;;;;;;;9.18;1.80;;;19.70;99.90;;;;;;5021949;28;20025;-66
2022/02/26 11:37:13;;;;;;;4.90;2.03;;;19.70;99.90;;;;;;5033538;28;20033;-66
2022/02/26 11:39:44;;;;;;;8.85;2.00;;;19.70;99.90;;;;;;5029497;28;20049;-67
2022/02/26 11:42:17;;;;;;;7.18;1.70;;;19.70;99.90;;;;;;5032133;28;20046;-67
2022/02/26 11:45:05;;;;;;;9.05;1.40;;;19.70;99.90;;;;;;5032013;28;20421;-66
2022/02/26 11:47:54;;;;;;;10.48;2.78;;;19.60;99.90;;;;;;5027953;28;20084;-67
2022/02/26 11:50:24;;;;;;;6.72;2.70;;;19.70;99.90;;;;;;5017485;28;20042;-67
2022/02/26 11:53:02;;;;;;;9.63;1.98;;;19.60;99.90;;;;;;5031564;28;20030;-67
2022/02/26 11:55:41;;;;;;;5.53;1.20;;;19.70;99.90;;;;;;5029207;28;20385;-67
2022/02/26 11:58:15;;;;;;;10.55;2.05;;;19.70;99.90;;;;;;5030918;28;20065;-67
2022/02/26 12:00:46;;;;;;;6.63;2.35;;;19.70;99.90;;;;;;5029251;28;20079;-67
2022/02/26 12:03:45;;;;;;;8.13;2.47;;;19.70;99.90;;;;;;5020367;28;20026;-67
2022/02/26 12:06:12;;;;;;;8.02;2.60;;;19.70;99.90;;;;;;5020300;28;20033;-67
2022/02/26 12:08:44;;;;;;;7.05;1.80;;;19.70;99.90;;;;;;5027298;28;20029;-67
2022/02/26 12:11:37;;;;;;;8.63;2.17;;;19.80;99.90;;;;;;5018883;28;20052;-67
2022/02/26 12:14:19;;;;;;;5.50;2.65;;;19.80;99.90;;;;;;5031398;28;20047;-67
2022/02/26 12:16:55;;;;;;;11.77;2.53;;;19.80;99.90;;;;;;5031533;28;20026;-67
2022/02/26 12:19:27;;;;;;;5.63;1.55;;;19.80;99.90;;;;;;5031311;28;20028;-67
2022/02/26 12:22:04;;;;;;;7.55;1.90;;;19.80;99.90;;;;;;5019660;28;20033;-67
2022/02/26 12:24:34;;;;;;;6.25;1.88;;;19.70;99.90;;;;;;5024217;28;20033;-67
2022/02/26 12:27:11;;;;;;;7.20;2.30;;;19.70;99.90;;;;;;5027200;28;20033;-67
2022/02/26 12:29:41;;;;;;;6.78;1.70;;;19.70;99.90;;;;;;5029973;28;20478;-67
2022/02/26 12:32:24;;;;;;;6.50;2.70;;;19.80;99.90;;;;;;5031506;28;20030;-67
2022/02/26 12:35:10;;;;;;;9.82;2.13;;;19.80;99.90;;;;;;5030360;28;20033;-67
2022/02/26 12:37:45;;;;;;;7.07;2.05;;;19.80;99.90;;;;;;5028047;28;20021;-67
2022/02/26 12:40:18;;;;;;;6.45;2.05;;;19.80;99.90;;;;;;5030999;28;20025;-67
2022/02/26 12:42:47;;;;;;;10.57;2.33;;;19.80;99.90;;;;;;5029519;28;20050;-67
2022/02/26 12:45:17;;;;;;;8.40;2.55;;;19.80;99.90;;;;;;5030599;28;20421;-67
2022/02/26 12:47:46;;;;;;;8.40;2.67;;;19.70;99.90;;;;;;5026385;28;20029;-67
2022/02/26 12:50:18;;;;;;;5.97;1.95;;;19.70;99.90;;;;;;5027626;28;20017;-67
2022/02/26 12:52:46;;;;;;;8.05;2.22;;;19.80;99.90;;;;;;5029196;28;20435;-67
2022/02/26 12:55:16;;;;;;;8.32;2.55;;;19.80;99.90;;;;;;5031146;28;20032;-67
2022/02/26 12:57:48;;;;;;;8.20;2.70;;;19.80;99.90;;;;;;5030686;28;20490;-67